createdAt,value
2022-10-31T00:00:14.560Z,4.11
2022-10-31T00:01:14.458Z,4.68
2022-10-31T00:02:11.808Z,4.57
2022-10-31T00:03:09.164Z,4.43
2022-10-31T00:04:06.511Z,4.06
2022-10-31T00:05:03.878Z,4.88
2022-10-31T00:06:02.668Z,4.50
2022-10-31T00:07:00.041Z,4.11
2022-10-31T00:07:57.331Z,4.44
2022-10-31T00:08:56.717Z,4.02
2022-10-31T00:09:53.995Z,4.20
2022-10-31T00:10:51.297Z,4.21
2022-10-31T00:11:48.608Z,4.31
2022-10-31T00:12:45.894Z,4.02
2022-10-31T00:13:43.285Z,4.25
2022-10-31T00:14:40.564Z,4.32
2022-10-31T00:15:39.452Z,4.34
2022-10-31T00:16:36.746Z,4.27
2022-10-31T00:17:35.659Z,4.07
2022-10-31T00:18:32.978Z,4.06
2022-10-31T00:19:30.345Z,4.18
2022-10-31T00:20:27.651Z,4.37
2022-10-31T00:21:25.114Z,4.35
2022-10-31T00:22:22.557Z,4.23
2022-10-31T00:23:19.822Z,4.63
2022-10-31T00:24:17.165Z,4.18
2022-10-31T00:25:14.558Z,4.05
2022-10-31T00:26:11.953Z,4.32
2022-10-31T00:27:09.270Z,4.36
2022-10-31T00:28:07.655Z,5.74
2022-10-31T00:29:05.001Z,6.27
2022-10-31T00:30:02.303Z,8.42
2022-10-31T00:31:00.914Z,9.62
2022-10-31T00:31:58.252Z,7.82
2022-10-31T00:32:55.539Z,6.54
2022-10-31T00:33:52.956Z,6.17
2022-10-31T00:34:50.258Z,5.95
2022-10-31T00:35:51.301Z,5.90
2022-10-31T00:36:48.625Z,6.19
2022-10-31T00:37:46.037Z,5.64
2022-10-31T00:38:44.091Z,5.92
2022-10-31T00:39:41.420Z,6.11
2022-10-31T00:40:38.709Z,5.66
2022-10-31T00:41:36.041Z,5.74
2022-10-31T00:42:33.327Z,5.54
2022-10-31T00:43:30.873Z,5.53
2022-10-31T00:44:28.192Z,5.86
2022-10-31T00:45:25.479Z,5.75
2022-10-31T00:46:22.806Z,5.55
2022-10-31T00:47:20.086Z,5.71
2022-10-31T00:48:17.515Z,5.58
2022-10-31T00:49:14.817Z,5.18
2022-10-31T00:50:12.125Z,5.32
2022-10-31T00:51:10.076Z,5.66
2022-10-31T00:52:07.364Z,5.48
2022-10-31T00:53:04.715Z,5.05
2022-10-31T00:54:02.009Z,4.95
2022-10-31T00:54:59.310Z,5.15
2022-10-31T00:55:56.664Z,4.99
2022-10-31T00:56:53.979Z,5.00
2022-10-31T00:57:51.246Z,4.79
2022-10-31T00:58:48.523Z,4.70
2022-10-31T00:59:45.813Z,4.94
2022-10-31T01:00:46.774Z,5.04
2022-10-31T01:01:47.001Z,4.85
2022-10-31T01:02:44.531Z,5.17
2022-10-31T01:03:41.964Z,5.16
2022-10-31T01:04:39.296Z,4.60
2022-10-31T01:05:36.597Z,4.86
2022-10-31T01:06:33.887Z,4.96
2022-10-31T01:07:31.253Z,5.10
2022-10-31T01:08:29.556Z,4.85
2022-10-31T01:09:26.918Z,5.20
2022-10-31T01:10:24.709Z,5.12
2022-10-31T01:11:23.839Z,4.91
2022-10-31T01:12:21.142Z,5.10
2022-10-31T01:13:18.514Z,5.49
2022-10-31T01:14:15.821Z,5.17
2022-10-31T01:15:14.388Z,5.13
2022-10-31T01:16:14.192Z,4.86
2022-10-31T01:17:11.975Z,5.34
2022-10-31T01:18:09.445Z,4.94
2022-10-31T01:19:06.732Z,5.51
2022-10-31T01:20:04.647Z,4.79
2022-10-31T01:21:09.793Z,5.22
2022-10-31T01:22:07.078Z,5.42
2022-10-31T01:23:04.372Z,5.78
2022-10-31T01:24:04.371Z,6.01
2022-10-31T01:25:02.397Z,5.78
2022-10-31T01:26:04.314Z,5.46
2022-10-31T01:27:01.604Z,6.07
2022-10-31T01:27:59.292Z,5.88
2022-10-31T01:28:58.461Z,6.32
2022-10-31T01:29:55.795Z,6.02
2022-10-31T01:30:53.099Z,5.60
2022-10-31T01:31:50.403Z,5.48
2022-10-31T01:32:47.701Z,4.95
2022-10-31T01:33:45.048Z,5.74
2022-10-31T01:34:42.435Z,5.95
2022-10-31T01:35:39.707Z,5.90
2022-10-31T01:36:38.663Z,6.42
2022-10-31T01:37:35.978Z,6.30
2022-10-31T01:38:33.261Z,5.96
2022-10-31T01:39:30.572Z,5.48
2022-10-31T01:40:30.511Z,5.61
2022-10-31T01:41:29.732Z,5.35
2022-10-31T01:42:27.045Z,5.46
2022-10-31T01:43:24.383Z,5.69
2022-10-31T01:44:21.609Z,5.67
2022-10-31T01:45:19.473Z,5.51
2022-10-31T01:46:19.576Z,5.01
2022-10-31T01:47:18.792Z,5.35
2022-10-31T01:48:19.610Z,4.67
2022-10-31T01:49:34.267Z,5.03
2022-10-31T01:50:40.072Z,5.00
2022-10-31T01:51:40.258Z,4.46
2022-10-31T01:52:41.561Z,4.97
2022-10-31T01:53:40.457Z,5.18
2022-10-31T01:54:43.103Z,4.68
2022-10-31T01:55:43.019Z,4.91
2022-10-31T01:56:43.631Z,4.71
2022-10-31T01:57:44.018Z,4.99
2022-10-31T01:58:41.687Z,5.36
2022-10-31T01:59:44.708Z,4.79
2022-10-31T02:00:45.310Z,5.04
2022-10-31T02:01:43.514Z,9.84
2022-10-31T02:02:41.609Z,10.49
2022-10-31T02:03:39.354Z,8.45
2022-10-31T02:04:37.900Z,8.10
2022-10-31T02:05:36.662Z,7.99
2022-10-31T02:06:44.246Z,8.25
2022-10-31T02:08:00.912Z,7.40
2022-10-31T02:09:00.407Z,5.37
2022-10-31T02:09:58.951Z,5.24
2022-10-31T02:10:58.085Z,5.69
2022-10-31T02:11:58.491Z,5.31
2022-10-31T02:12:59.645Z,4.97
2022-10-31T02:13:59.210Z,5.18
2022-10-31T02:14:56.687Z,5.38
2022-10-31T02:15:55.605Z,5.45
2022-10-31T02:16:53.032Z,5.45
2022-10-31T02:17:50.492Z,5.07
2022-10-31T02:18:47.890Z,4.89
2022-10-31T02:20:11.413Z,4.71
2022-10-31T02:21:27.816Z,4.90
2022-10-31T02:22:43.635Z,4.93
2022-10-31T02:23:50.620Z,4.82
2022-10-31T02:25:04.371Z,5.64
2022-10-31T02:26:20.273Z,5.21
2022-10-31T02:27:32.294Z,5.35
2022-10-31T02:28:41.532Z,5.66
2022-10-31T02:29:57.367Z,5.49
2022-10-31T02:31:06.733Z,6.36
2022-10-31T02:32:12.833Z,5.57
2022-10-31T02:33:23.208Z,5.35
2022-10-31T02:34:24.432Z,5.00
2022-10-31T02:35:21.687Z,5.22
2022-10-31T02:36:27.365Z,4.90
2022-10-31T02:37:38.741Z,4.88
2022-10-31T02:38:38.771Z,5.16
2022-10-31T02:39:43.500Z,5.08
2022-10-31T02:40:50.274Z,5.52
2022-10-31T02:42:00.557Z,5.02
2022-10-31T02:42:58.215Z,4.90
2022-10-31T02:44:04.771Z,5.99
2022-10-31T02:45:09.383Z,5.14
2022-10-31T02:46:36.257Z,5.79
2022-10-31T02:47:37.784Z,7.40
2022-10-31T02:48:39.957Z,6.33
2022-10-31T02:49:39.962Z,5.91
2022-10-31T02:50:41.095Z,5.20
2022-10-31T02:51:39.905Z,5.16
2022-10-31T02:52:37.249Z,5.93
2022-10-31T02:53:35.912Z,5.79
2022-10-31T02:54:33.376Z,5.70
2022-10-31T02:55:30.639Z,5.83
2022-10-31T02:56:27.915Z,5.63
2022-10-31T02:57:34.431Z,5.52
2022-10-31T02:58:36.579Z,5.77
2022-10-31T02:59:36.947Z,5.83
2022-10-31T03:00:52.322Z,5.99
2022-10-31T03:01:58.580Z,5.91
2022-10-31T03:02:55.994Z,5.82
2022-10-31T03:04:02.181Z,5.59
2022-10-31T03:05:08.500Z,5.99
2022-10-31T03:06:05.780Z,5.60
2022-10-31T03:07:21.508Z,5.97
2022-10-31T03:08:18.776Z,6.24
2022-10-31T03:09:25.093Z,6.44
2022-10-31T03:10:35.904Z,6.37
2022-10-31T03:11:59.289Z,6.52
2022-10-31T03:13:07.767Z,5.94
2022-10-31T03:14:11.791Z,6.22
2022-10-31T03:15:16.212Z,6.09
2022-10-31T03:16:19.390Z,6.05
2022-10-31T03:17:30.671Z,6.28
2022-10-31T03:18:33.844Z,6.82
2022-10-31T03:19:35.356Z,6.26
2022-10-31T03:20:45.917Z,6.73
2022-10-31T03:21:46.285Z,6.30
2022-10-31T03:22:45.277Z,6.05
2022-10-31T03:23:45.647Z,6.00
2022-10-31T03:24:44.492Z,6.00
2022-10-31T03:25:43.865Z,5.94
2022-10-31T03:26:45.059Z,6.04
2022-10-31T03:27:45.374Z,5.64
2022-10-31T03:28:47.488Z,5.86
2022-10-31T03:29:46.029Z,6.40
2022-10-31T03:30:46.375Z,5.73
2022-10-31T03:31:57.173Z,5.95
2022-10-31T03:32:57.643Z,5.76
2022-10-31T03:33:58.456Z,5.64
2022-10-31T03:34:59.674Z,5.40
2022-10-31T03:36:00.179Z,5.53
2022-10-31T03:37:01.981Z,5.42
2022-10-31T03:38:05.442Z,5.28
2022-10-31T03:39:07.976Z,5.56
2022-10-31T03:40:08.973Z,5.62
2022-10-31T03:41:11.821Z,5.76
2022-10-31T03:42:12.953Z,5.74
2022-10-31T03:43:16.343Z,5.42
2022-10-31T03:44:17.530Z,5.74
2022-10-31T03:45:18.997Z,5.52
2022-10-31T03:46:16.505Z,5.69
2022-10-31T03:47:14.155Z,5.50
2022-10-31T03:48:12.522Z,5.52
2022-10-31T03:49:10.786Z,5.96
2022-10-31T03:50:09.132Z,5.60
2022-10-31T03:51:17.696Z,5.54
2022-10-31T03:52:28.107Z,5.83
2022-10-31T03:53:31.969Z,6.50
2022-10-31T03:54:42.611Z,6.24
2022-10-31T03:55:48.720Z,6.34
2022-10-31T03:56:58.636Z,6.68
2022-10-31T03:58:02.513Z,7.59
2022-10-31T03:59:23.231Z,7.03
2022-10-31T04:00:20.871Z,7.01
2022-10-31T04:01:21.564Z,7.07
2022-10-31T04:02:23.764Z,7.88
2022-10-31T04:03:27.448Z,7.31
2022-10-31T04:04:26.566Z,7.31
2022-10-31T04:05:23.869Z,7.34
2022-10-31T04:06:23.921Z,7.62
2022-10-31T04:07:24.675Z,7.84
2022-10-31T04:08:27.275Z,7.84
2022-10-31T04:09:27.098Z,7.70
2022-10-31T04:10:31.929Z,7.85
2022-10-31T04:11:33.749Z,8.24
2022-10-31T04:12:34.473Z,7.81
2022-10-31T04:13:36.762Z,7.57
2022-10-31T04:14:37.048Z,8.00
2022-10-31T04:15:36.223Z,8.01
2022-10-31T04:16:33.969Z,7.38
2022-10-31T04:17:35.063Z,7.28
2022-10-31T04:18:32.333Z,7.60
2022-10-31T04:19:29.636Z,7.71
2022-10-31T04:20:34.146Z,7.20
2022-10-31T04:21:31.851Z,7.13
2022-10-31T04:22:29.247Z,7.46
2022-10-31T04:23:27.270Z,7.69
2022-10-31T04:24:24.581Z,7.45
2022-10-31T04:25:21.888Z,7.34
2022-10-31T04:26:19.172Z,7.49
2022-10-31T04:27:16.503Z,7.66
2022-10-31T04:28:13.843Z,7.79
2022-10-31T04:29:11.159Z,7.31
2022-10-31T04:30:08.698Z,7.41
2022-10-31T04:31:06.081Z,7.61
2022-10-31T04:32:03.394Z,7.08
2022-10-31T04:33:01.042Z,7.22
2022-10-31T04:33:58.533Z,7.54
2022-10-31T04:34:55.835Z,6.91
2022-10-31T04:35:53.145Z,6.45
2022-10-31T04:36:50.453Z,6.88
2022-10-31T04:37:47.733Z,7.11
2022-10-31T04:38:45.047Z,7.15
2022-10-31T04:39:42.341Z,6.70
2022-10-31T04:40:39.610Z,6.97
2022-10-31T04:41:36.924Z,6.73
2022-10-31T04:42:34.255Z,6.70
2022-10-31T04:43:31.605Z,7.21
2022-10-31T04:44:28.877Z,6.52
2022-10-31T04:45:26.245Z,6.89
2022-10-31T04:46:23.554Z,7.25
2022-10-31T04:47:20.839Z,7.21
2022-10-31T04:48:18.171Z,7.29
2022-10-31T04:49:15.483Z,6.92
2022-10-31T04:50:12.784Z,6.73
2022-10-31T04:51:10.160Z,6.93
2022-10-31T04:52:09.076Z,6.90
2022-10-31T04:53:06.434Z,6.72
2022-10-31T04:54:03.998Z,7.89
2022-10-31T04:55:01.297Z,7.10
2022-10-31T04:55:59.992Z,7.20
2022-10-31T04:56:57.292Z,6.76
2022-10-31T04:57:54.616Z,6.34
2022-10-31T04:58:52.114Z,6.91
2022-10-31T04:59:49.409Z,7.05
2022-10-31T05:00:46.865Z,6.58
2022-10-31T05:01:44.283Z,7.39
2022-10-31T05:02:45.319Z,6.89
2022-10-31T05:03:42.675Z,7.36
2022-10-31T05:04:39.962Z,7.61
2022-10-31T05:05:37.265Z,7.21
2022-10-31T05:06:34.546Z,6.57
2022-10-31T05:07:31.836Z,6.36
2022-10-31T05:08:29.117Z,6.55
2022-10-31T05:09:26.408Z,6.51
2022-10-31T05:10:25.809Z,6.34
2022-10-31T05:11:23.133Z,6.61
2022-10-31T05:12:20.425Z,6.72
2022-10-31T05:13:17.793Z,6.72
2022-10-31T05:14:15.050Z,6.75
2022-10-31T05:15:12.322Z,6.34
2022-10-31T05:16:09.665Z,6.68
2022-10-31T05:17:06.984Z,6.55
2022-10-31T05:18:04.910Z,6.74
2022-10-31T05:19:02.302Z,6.63
2022-10-31T05:19:59.650Z,6.63
2022-10-31T05:20:56.922Z,6.83
2022-10-31T05:21:54.230Z,6.91
2022-10-31T05:22:53.124Z,6.87
2022-10-31T05:23:50.497Z,6.67
2022-10-31T05:24:47.828Z,6.71
2022-10-31T05:25:45.151Z,7.23
2022-10-31T05:26:42.493Z,6.74
2022-10-31T05:27:44.335Z,6.50
2022-10-31T05:28:41.626Z,6.51
2022-10-31T05:29:38.953Z,6.73
2022-10-31T05:30:36.656Z,6.55
2022-10-31T05:31:34.021Z,6.21
2022-10-31T05:32:31.315Z,6.47
2022-10-31T05:33:28.605Z,6.55
2022-10-31T05:34:25.912Z,6.31
2022-10-31T05:35:24.921Z,6.31
2022-10-31T05:36:22.219Z,6.45
2022-10-31T05:37:19.558Z,6.90
2022-10-31T05:38:16.962Z,6.92
2022-10-31T05:39:14.249Z,6.74
2022-10-31T05:40:13.356Z,6.74
2022-10-31T05:41:10.811Z,6.76
2022-10-31T05:42:08.091Z,6.44
2022-10-31T05:43:05.456Z,6.94
2022-10-31T05:44:02.755Z,6.51
2022-10-31T05:45:00.213Z,6.17
2022-10-31T05:45:57.619Z,6.50
2022-10-31T05:46:54.886Z,6.12
2022-10-31T05:47:53.004Z,6.86
2022-10-31T05:48:50.271Z,6.18
2022-10-31T05:49:47.683Z,6.40
2022-10-31T05:50:44.983Z,6.49
2022-10-31T05:51:42.322Z,7.00
2022-10-31T05:52:39.682Z,6.51
2022-10-31T05:53:37.021Z,6.62
2022-10-31T05:54:34.319Z,6.26
2022-10-31T05:55:32.062Z,6.12
2022-10-31T05:56:29.938Z,6.55
2022-10-31T05:57:27.232Z,6.54
2022-10-31T05:58:24.546Z,6.40
2022-10-31T05:59:21.881Z,6.64
2022-10-31T06:00:19.679Z,6.86
2022-10-31T06:01:17.025Z,7.55
2022-10-31T06:02:14.343Z,7.27
2022-10-31T06:03:11.741Z,7.10
2022-10-31T06:04:09.155Z,6.71
2022-10-31T06:05:06.585Z,7.10
2022-10-31T06:06:03.970Z,7.19
2022-10-31T06:07:01.579Z,7.26
2022-10-31T06:07:59.666Z,7.58
2022-10-31T06:08:57.236Z,7.87
2022-10-31T06:09:54.526Z,7.48
2022-10-31T06:10:54.058Z,7.42
2022-10-31T06:11:51.375Z,7.24
2022-10-31T06:12:49.031Z,7.68
2022-10-31T06:13:46.305Z,7.47
2022-10-31T06:14:43.665Z,8.72
2022-10-31T06:15:42.651Z,7.92
2022-10-31T06:16:39.952Z,8.72
2022-10-31T06:17:37.547Z,8.76
2022-10-31T06:18:34.847Z,8.50
2022-10-31T06:19:32.121Z,7.79
2022-10-31T06:20:29.462Z,7.60
2022-10-31T06:21:26.761Z,7.48
2022-10-31T06:22:24.038Z,7.56
2022-10-31T06:23:21.332Z,7.65
2022-10-31T06:24:18.631Z,7.83
2022-10-31T06:25:16.006Z,7.57
2022-10-31T06:26:13.696Z,7.25
2022-10-31T06:27:11.003Z,7.29
2022-10-31T06:28:08.322Z,7.82
2022-10-31T06:29:05.603Z,7.87
2022-10-31T06:30:02.919Z,7.51
2022-10-31T06:31:00.282Z,7.12
2022-10-31T06:31:57.626Z,7.02
2022-10-31T06:32:55.020Z,7.66
2022-10-31T06:33:52.319Z,7.41
2022-10-31T06:34:49.722Z,7.35
2022-10-31T06:35:48.146Z,7.73
2022-10-31T06:36:47.184Z,7.25
2022-10-31T06:37:51.294Z,7.65
2022-10-31T06:38:48.643Z,7.71
2022-10-31T06:39:45.981Z,7.89
2022-10-31T06:40:43.349Z,7.52
2022-10-31T06:41:40.727Z,7.51
2022-10-31T06:42:38.032Z,7.52
2022-10-31T06:43:35.449Z,7.70
2022-10-31T06:44:33.331Z,7.77
2022-10-31T06:45:30.766Z,7.59
2022-10-31T06:46:28.066Z,7.39
2022-10-31T06:47:25.363Z,7.66
2022-10-31T06:48:22.919Z,7.70
2022-10-31T06:49:20.380Z,7.45
2022-10-31T06:50:17.694Z,8.03
2022-10-31T06:51:15.003Z,7.90
2022-10-31T06:52:12.319Z,7.13
2022-10-31T06:53:11.560Z,8.07
2022-10-31T06:54:09.007Z,7.82
2022-10-31T06:55:06.447Z,7.91
2022-10-31T06:56:03.852Z,7.71
2022-10-31T06:57:01.208Z,7.86
2022-10-31T06:58:02.887Z,7.45
2022-10-31T06:59:00.717Z,7.48
2022-10-31T06:59:57.995Z,7.86
2022-10-31T07:00:55.379Z,7.52
2022-10-31T07:01:52.889Z,7.40
2022-10-31T07:03:01.070Z,7.68
2022-10-31T07:03:58.813Z,8.24
2022-10-31T07:04:56.145Z,8.08
2022-10-31T07:05:55.527Z,8.77
2022-10-31T07:06:53.804Z,8.58
2022-10-31T07:07:55.609Z,7.90
2022-10-31T07:08:52.947Z,8.33
2022-10-31T07:09:50.263Z,8.68
2022-10-31T07:10:52.565Z,9.11
2022-10-31T07:11:53.108Z,8.24
2022-10-31T07:12:55.108Z,9.37
2022-10-31T07:13:52.446Z,9.82
2022-10-31T07:14:49.763Z,10.29
2022-10-31T07:15:47.154Z,11.00
2022-10-31T07:16:44.468Z,10.41
2022-10-31T07:17:41.850Z,10.97
2022-10-31T07:18:39.293Z,10.57
2022-10-31T07:19:36.673Z,10.58
2022-10-31T07:20:35.205Z,11.57
2022-10-31T07:21:32.559Z,11.54
2022-10-31T07:22:36.966Z,11.85
2022-10-31T07:23:34.348Z,11.34
2022-10-31T07:24:31.778Z,12.12
2022-10-31T07:25:29.210Z,12.42
2022-10-31T07:26:27.209Z,12.98
2022-10-31T07:27:24.574Z,11.56
2022-10-31T07:28:21.883Z,11.69
2022-10-31T07:29:19.173Z,12.38
2022-10-31T07:30:19.218Z,12.32
2022-10-31T07:31:16.592Z,12.07
2022-10-31T07:32:13.911Z,11.72
2022-10-31T07:33:11.245Z,12.04
2022-10-31T07:34:08.573Z,11.81
2022-10-31T07:35:07.438Z,11.83
2022-10-31T07:36:05.165Z,11.26
2022-10-31T07:37:02.527Z,10.96
2022-10-31T07:38:08.042Z,11.81
2022-10-31T07:39:05.467Z,11.00
2022-10-31T07:40:03.662Z,11.17
2022-10-31T07:41:01.275Z,10.73
2022-10-31T07:42:01.520Z,10.42
2022-10-31T07:42:58.820Z,11.22
2022-10-31T07:43:56.206Z,10.27
2022-10-31T07:44:56.750Z,10.72
2022-10-31T07:45:55.430Z,10.87
2022-10-31T07:46:52.741Z,10.79
2022-10-31T07:47:51.518Z,10.44
2022-10-31T07:48:48.818Z,10.40
2022-10-31T07:49:46.118Z,10.45
2022-10-31T07:50:43.461Z,9.95
2022-10-31T07:51:45.624Z,10.31
2022-10-31T07:52:44.693Z,10.86
2022-10-31T07:53:41.994Z,10.75
2022-10-31T07:54:39.320Z,10.84
2022-10-31T07:55:36.709Z,10.70
2022-10-31T07:56:34.078Z,10.20
2022-10-31T07:57:34.502Z,10.64
2022-10-31T07:58:32.250Z,10.26
2022-10-31T07:59:29.562Z,10.38
2022-10-31T08:00:27.474Z,10.36
2022-10-31T08:01:24.938Z,10.62
2022-10-31T08:02:22.297Z,10.82
2022-10-31T08:03:20.249Z,10.15
2022-10-31T08:04:17.595Z,9.89
2022-10-31T08:05:14.974Z,9.46
2022-10-31T08:06:12.262Z,9.14
2022-10-31T08:07:09.575Z,9.86
2022-10-31T08:08:06.973Z,9.82
2022-10-31T08:09:04.351Z,10.48
2022-10-31T08:10:01.668Z,10.23
2022-10-31T08:10:59.501Z,9.88
2022-10-31T08:11:56.839Z,9.59
2022-10-31T08:13:05.239Z,9.98
2022-10-31T08:14:02.634Z,10.19
2022-10-31T08:14:59.934Z,10.79
2022-10-31T08:16:04.227Z,10.10
2022-10-31T08:17:01.556Z,10.18
2022-10-31T08:17:59.229Z,10.06
2022-10-31T08:18:56.802Z,10.35
2022-10-31T08:19:54.108Z,10.11
2022-10-31T08:20:51.534Z,10.26
2022-10-31T08:21:52.281Z,10.20
2022-10-31T08:23:00.057Z,10.24
2022-10-31T08:23:57.426Z,10.33
2022-10-31T08:24:54.735Z,10.16
2022-10-31T08:25:52.151Z,10.17
2022-10-31T08:26:49.579Z,9.67
2022-10-31T08:28:05.426Z,9.26
2022-10-31T08:29:02.937Z,9.78
2022-10-31T08:30:00.266Z,9.73
2022-10-31T08:30:58.507Z,9.94
2022-10-31T08:31:55.794Z,9.67
2022-10-31T08:33:11.688Z,9.89
2022-10-31T08:34:09.105Z,9.68
2022-10-31T08:35:06.541Z,9.38
2022-10-31T08:36:03.949Z,9.95
2022-10-31T08:37:01.292Z,9.51
2022-10-31T08:37:59.583Z,9.52
2022-10-31T08:39:01.664Z,9.34
2022-10-31T08:39:59.525Z,10.13
2022-10-31T08:40:56.868Z,10.16
2022-10-31T08:41:54.220Z,9.95
2022-10-31T08:43:02.096Z,9.29
2022-10-31T08:43:59.431Z,9.32
2022-10-31T08:44:56.744Z,9.06
2022-10-31T08:45:55.939Z,9.57
2022-10-31T08:46:53.339Z,9.63
2022-10-31T08:47:50.770Z,9.48
2022-10-31T08:48:51.190Z,10.15
2022-10-31T08:49:48.496Z,9.74
2022-10-31T08:50:46.714Z,8.86
2022-10-31T08:51:44.002Z,9.67
2022-10-31T08:53:03.488Z,9.45
2022-10-31T08:53:58.815Z,9.71
2022-10-31T08:54:56.100Z,10.51
2022-10-31T08:55:56.008Z,10.50
2022-10-31T08:56:56.873Z,9.74
2022-10-31T08:57:57.771Z,10.39
2022-10-31T08:58:55.491Z,9.79
2022-10-31T08:59:52.916Z,9.51
2022-10-31T09:00:52.719Z,10.21
2022-10-31T09:01:50.112Z,9.61
2022-10-31T09:02:47.628Z,9.46
2022-10-31T09:03:45.056Z,10.03
2022-10-31T09:04:42.416Z,9.85
2022-10-31T09:05:40.514Z,9.46
2022-10-31T09:06:38.105Z,9.19
2022-10-31T09:07:36.428Z,9.62
2022-10-31T09:08:34.089Z,9.88
2022-10-31T09:09:31.462Z,9.73
2022-10-31T09:10:29.734Z,9.55
2022-10-31T09:11:27.053Z,9.75
2022-10-31T09:12:24.966Z,9.00
2022-10-31T09:13:24.186Z,9.01
2022-10-31T09:14:23.480Z,8.97
2022-10-31T09:15:20.781Z,9.11
2022-10-31T09:16:18.073Z,9.27
2022-10-31T09:17:15.358Z,8.67
2022-10-31T09:18:13.966Z,8.84
2022-10-31T09:19:11.734Z,9.46
2022-10-31T09:20:10.063Z,9.50
2022-10-31T09:21:08.436Z,8.80
2022-10-31T09:22:05.723Z,8.76
2022-10-31T09:23:05.147Z,8.94
2022-10-31T09:24:02.463Z,9.02
2022-10-31T09:24:59.739Z,9.00
2022-10-31T09:26:00.373Z,8.78
2022-10-31T09:26:59.216Z,8.59
2022-10-31T09:28:00.611Z,8.45
2022-10-31T09:28:59.549Z,8.60
2022-10-31T09:29:56.949Z,8.62
2022-10-31T09:30:54.817Z,8.56
2022-10-31T09:31:52.117Z,8.48
2022-10-31T09:32:49.516Z,7.80
2022-10-31T09:33:46.872Z,8.29
2022-10-31T09:34:44.172Z,8.16
2022-10-31T09:35:41.895Z,8.33
2022-10-31T09:36:39.609Z,8.42
2022-10-31T09:37:37.125Z,8.23
2022-10-31T09:38:34.504Z,8.38
2022-10-31T09:39:31.832Z,7.83
2022-10-31T09:40:35.257Z,8.14
2022-10-31T09:41:54.622Z,7.91
2022-10-31T09:42:54.623Z,8.54
2022-10-31T09:44:09.133Z,8.37
2022-10-31T09:45:06.466Z,8.38
2022-10-31T09:46:39.139Z,8.01
2022-10-31T09:48:14.801Z,8.20
2022-10-31T09:49:17.870Z,8.18
2022-10-31T09:50:15.181Z,7.96
2022-10-31T09:51:18.089Z,8.73
2022-10-31T09:52:23.992Z,8.34
2022-10-31T09:53:29.142Z,8.36
2022-10-31T09:54:43.818Z,8.17
2022-10-31T09:55:49.080Z,8.53
2022-10-31T09:56:46.657Z,8.41
2022-10-31T09:57:45.237Z,8.13
2022-10-31T09:58:45.057Z,7.92
2022-10-31T09:59:45.629Z,8.57
2022-10-31T10:00:45.034Z,7.90
2022-10-31T10:01:54.533Z,7.99
2022-10-31T10:03:01.511Z,8.23
2022-10-31T10:04:03.927Z,7.74
2022-10-31T10:05:05.072Z,7.69
2022-10-31T10:06:21.992Z,7.84
2022-10-31T10:07:29.030Z,7.60
2022-10-31T10:08:29.195Z,7.81
2022-10-31T10:09:27.888Z,7.78
2022-10-31T10:10:49.267Z,7.59
2022-10-31T10:11:46.541Z,7.75
2022-10-31T10:12:43.808Z,7.37
2022-10-31T10:13:54.703Z,7.79
2022-10-31T10:14:54.820Z,7.61
2022-10-31T10:16:07.793Z,8.03
2022-10-31T10:17:23.882Z,8.04
2022-10-31T10:18:40.435Z,7.51
2022-10-31T10:19:46.829Z,7.99
2022-10-31T10:20:44.111Z,7.88
2022-10-31T10:21:52.764Z,7.64
2022-10-31T10:22:51.453Z,7.75
2022-10-31T10:24:03.058Z,7.59
2022-10-31T10:25:06.210Z,7.36
2022-10-31T10:26:12.396Z,7.77
2022-10-31T10:27:17.936Z,6.67
2022-10-31T10:28:20.994Z,7.10
2022-10-31T10:29:47.485Z,6.70
2022-10-31T10:30:51.510Z,7.92
2022-10-31T10:31:51.568Z,7.32
2022-10-31T10:32:55.229Z,7.38
2022-10-31T10:34:11.033Z,7.69
2022-10-31T10:35:28.567Z,8.20
2022-10-31T10:36:38.895Z,8.73
2022-10-31T10:37:40.693Z,8.19
2022-10-31T10:38:43.950Z,7.41
2022-10-31T10:39:51.250Z,7.84
2022-10-31T10:40:48.949Z,7.96
2022-10-31T10:42:08.902Z,8.27
2022-10-31T10:43:24.709Z,8.45
2022-10-31T10:44:21.997Z,8.76
2022-10-31T10:45:39.187Z,9.44
2022-10-31T10:47:24.217Z,8.85
2022-10-31T10:48:43.842Z,9.25
2022-10-31T10:49:51.360Z,8.37
2022-10-31T10:50:51.628Z,8.87
2022-10-31T10:52:02.723Z,8.95
2022-10-31T10:53:22.187Z,8.41
2022-10-31T10:54:28.359Z,8.86
2022-10-31T10:55:34.505Z,8.63
2022-10-31T10:56:38.704Z,8.45
2022-10-31T10:57:36.056Z,8.63
2022-10-31T10:58:33.392Z,8.69
2022-10-31T10:59:31.945Z,8.48
2022-10-31T11:00:35.477Z,8.17
2022-10-31T11:01:32.920Z,8.37
2022-10-31T11:02:32.732Z,8.47
2022-10-31T11:03:30.100Z,7.92
2022-10-31T11:04:35.085Z,8.14
2022-10-31T11:05:38.371Z,8.18
2022-10-31T11:06:35.678Z,8.03
2022-10-31T11:07:42.073Z,8.20
2022-10-31T11:08:39.398Z,8.18
2022-10-31T11:09:38.350Z,7.62
2022-10-31T11:10:36.409Z,7.68
2022-10-31T11:11:33.786Z,7.37
2022-10-31T11:12:34.906Z,7.41
2022-10-31T11:13:34.151Z,7.83
2022-10-31T11:14:31.456Z,7.62
2022-10-31T11:15:31.995Z,7.60
2022-10-31T11:16:41.581Z,7.11
2022-10-31T11:17:41.548Z,7.45
2022-10-31T11:18:42.454Z,7.32
2022-10-31T11:19:40.005Z,7.29
2022-10-31T11:20:37.676Z,7.57
2022-10-31T11:21:35.795Z,7.21
2022-10-31T11:22:33.222Z,7.06
2022-10-31T11:23:30.617Z,7.34
2022-10-31T11:24:28.530Z,6.45
2022-10-31T11:25:27.258Z,7.18
2022-10-31T11:26:24.584Z,6.87
2022-10-31T11:27:23.191Z,7.48
2022-10-31T11:28:20.716Z,7.05
2022-10-31T11:29:18.059Z,6.91
2022-10-31T11:30:15.504Z,7.00
2022-10-31T11:31:14.946Z,6.98
2022-10-31T11:32:38.945Z,7.01
2022-10-31T11:33:38.938Z,6.43
2022-10-31T11:34:38.986Z,6.62
2022-10-31T11:35:40.993Z,6.81
2022-10-31T11:36:40.790Z,6.82
2022-10-31T11:37:44.050Z,6.73
2022-10-31T11:38:43.460Z,6.83
2022-10-31T11:39:46.062Z,7.28
2022-10-31T11:40:53.136Z,6.97
2022-10-31T11:41:53.208Z,6.64
2022-10-31T11:42:52.405Z,6.76
2022-10-31T11:44:02.389Z,7.21
2022-10-31T11:45:13.893Z,7.26
2022-10-31T11:46:16.254Z,7.12
2022-10-31T11:47:16.947Z,7.57
2022-10-31T11:48:18.891Z,6.98
2022-10-31T11:49:22.702Z,7.05
2022-10-31T11:50:23.241Z,7.49
2022-10-31T11:51:22.118Z,7.07
2022-10-31T11:52:31.487Z,7.18
2022-10-31T11:53:31.539Z,6.86
2022-10-31T11:54:31.915Z,7.08
2022-10-31T11:55:34.634Z,7.16
2022-10-31T11:56:42.228Z,7.14
2022-10-31T11:57:58.501Z,6.91
2022-10-31T11:59:02.885Z,7.25
2022-10-31T12:00:01.762Z,7.24
2022-10-31T12:00:59.764Z,7.44
2022-10-31T12:01:59.038Z,7.24
2022-10-31T12:03:12.363Z,7.18
2022-10-31T12:04:11.189Z,7.17
2022-10-31T12:05:08.486Z,7.39
2022-10-31T12:06:08.549Z,7.21
2022-10-31T12:07:06.074Z,7.41
2022-10-31T12:08:04.706Z,7.61
2022-10-31T12:09:02.237Z,6.46
2022-10-31T12:09:59.750Z,7.01
2022-10-31T12:11:10.062Z,7.30
2022-10-31T12:12:10.191Z,7.05
2022-10-31T12:13:26.275Z,6.73
2022-10-31T12:14:32.954Z,6.98
2022-10-31T12:15:34.457Z,7.39
2022-10-31T12:16:37.808Z,7.09
2022-10-31T12:17:46.026Z,7.18
2022-10-31T12:18:54.724Z,7.03
2022-10-31T12:19:55.266Z,6.74
2022-10-31T12:21:08.592Z,6.94
2022-10-31T12:22:24.429Z,7.31
2022-10-31T12:23:21.721Z,7.32
2022-10-31T12:24:19.000Z,6.99
2022-10-31T12:25:25.160Z,7.20
2022-10-31T12:26:37.538Z,7.00
2022-10-31T12:27:40.705Z,7.35
2022-10-31T12:28:41.573Z,7.26
2022-10-31T12:29:47.745Z,6.78
2022-10-31T12:30:53.974Z,6.86
2022-10-31T12:31:53.975Z,7.18
2022-10-31T12:33:14.321Z,6.73
2022-10-31T12:34:29.958Z,6.76
2022-10-31T12:36:47.559Z,7.61
2022-10-31T12:37:44.821Z,7.69
2022-10-31T12:39:00.339Z,6.86
2022-10-31T12:40:16.237Z,7.18
2022-10-31T12:41:23.425Z,6.70
2022-10-31T12:42:20.754Z,6.42
2022-10-31T12:43:31.080Z,6.75
2022-10-31T12:44:34.204Z,6.17
2022-10-31T12:45:42.577Z,3.12
2022-10-31T12:47:06.323Z,2.84
2022-10-31T12:48:22.325Z,2.69
2022-10-31T12:49:19.612Z,2.39
2022-10-31T12:50:36.230Z,2.56
2022-10-31T12:51:36.392Z,2.04
2022-10-31T12:52:55.830Z,2.43
2022-10-31T12:54:08.111Z,2.39
2022-10-31T12:55:05.690Z,2.30
2022-10-31T12:56:02.969Z,2.08
2022-10-31T12:57:10.460Z,2.18
2022-10-31T12:58:16.401Z,2.42
2022-10-31T12:59:22.682Z,2.39
2022-10-31T13:00:20.866Z,2.56
2022-10-31T13:01:38.543Z,2.17
2022-10-31T13:02:35.943Z,2.40
2022-10-31T13:03:38.496Z,2.33
2022-10-31T13:04:47.319Z,2.53
2022-10-31T13:05:48.208Z,2.31
2022-10-31T13:06:55.823Z,2.22
2022-10-31T13:07:55.952Z,2.67
2022-10-31T13:09:00.701Z,2.65
2022-10-31T13:10:03.979Z,2.84
2022-10-31T13:11:04.165Z,2.42
2022-10-31T13:12:14.110Z,2.38
2022-10-31T13:13:19.199Z,2.51
2022-10-31T13:14:25.880Z,2.29
2022-10-31T13:15:28.825Z,2.78
2022-10-31T13:16:30.548Z,2.77
2022-10-31T13:17:44.517Z,2.22
2022-10-31T13:18:46.328Z,2.31
2022-10-31T13:19:46.365Z,2.42
2022-10-31T13:20:51.653Z,2.62
2022-10-31T13:21:54.969Z,2.64
2022-10-31T13:23:00.510Z,2.31
2022-10-31T13:24:01.484Z,2.42
2022-10-31T13:25:13.727Z,2.26
2022-10-31T13:26:20.649Z,2.48
2022-10-31T13:27:26.314Z,2.37
2022-10-31T13:28:32.670Z,2.42
2022-10-31T13:29:33.148Z,2.50